createdAt,value
2018-04-14T00:02:02.182Z,9.70
2018-04-14T00:04:30.566Z,9.80
2018-04-14T00:06:59.003Z,9.70
2018-04-14T00:09:26.623Z,9.70
2018-04-14T00:11:54.242Z,9.70
2018-04-14T00:14:21.911Z,9.70
2018-04-14T00:16:49.578Z,9.70
2018-04-14T00:19:17.197Z,9.70
2018-04-14T00:21:44.943Z,9.80
2018-04-14T00:24:12.562Z,9.80
2018-04-14T00:26:40.186Z,9.80
2018-04-14T00:29:07.948Z,9.80
2018-04-14T00:31:35.565Z,9.70
2018-04-14T00:34:03.185Z,9.70
2018-04-14T00:36:30.968Z,9.70
2018-04-14T00:38:58.593Z,9.70
2018-04-14T00:41:26.210Z,9.70
2018-04-14T00:43:53.869Z,9.70
2018-04-14T00:46:21.505Z,9.70
2018-04-14T00:48:49.175Z,9.70
2018-04-14T00:51:16.919Z,9.60
2018-04-14T00:53:50.140Z,9.60
2018-04-14T00:56:17.798Z,9.50
2018-04-14T00:58:45.425Z,9.50
2018-04-14T01:01:13.033Z,9.50
2018-04-14T01:03:40.819Z,9.40
2018-04-14T01:06:08.445Z,9.40
2018-04-14T01:08:36.070Z,9.40
2018-04-14T01:11:03.739Z,9.30
2018-04-14T01:13:31.359Z,9.30
2018-04-14T01:15:58.977Z,9.30
2018-04-14T01:18:26.917Z,9.30
2018-04-14T01:20:55.314Z,9.20
2018-04-14T01:23:23.713Z,9.20
2018-04-14T01:25:52.451Z,9.20
2018-04-14T01:28:20.068Z,9.20
2018-04-14T01:30:47.708Z,9.20
2018-04-14T01:33:15.368Z,9.20
2018-04-14T01:35:43.025Z,9.10
2018-04-14T01:38:10.710Z,9.10
2018-04-14T01:40:38.496Z,9.10
2018-04-14T01:43:06.115Z,9.10
2018-04-14T01:45:34.509Z,9.00
2018-04-14T01:48:02.180Z,9.00
2018-04-14T01:50:29.804Z,9.10
2018-04-14T01:52:57.427Z,9.10
2018-04-14T01:55:25.857Z,9.10
2018-04-14T01:57:53.521Z,9.10
2018-04-14T02:00:22.605Z,9.00
2018-04-14T02:02:51.953Z,9.00
2018-04-14T02:05:19.565Z,9.00
2018-04-14T02:07:47.181Z,9.00
2018-04-14T02:10:14.842Z,9.00
2018-04-14T02:12:43.225Z,9.00
2018-04-14T02:15:11.609Z,9.10
2018-04-14T02:17:39.278Z,9.00
2018-04-14T02:20:07.010Z,9.10
2018-04-14T02:22:34.622Z,9.10
2018-04-14T02:25:02.373Z,9.10
2018-04-14T02:27:30.013Z,9.10
2018-04-14T02:29:57.704Z,9.10
2018-04-14T02:32:25.466Z,9.10
2018-04-14T02:34:53.082Z,9.10
2018-04-14T02:37:20.693Z,9.10
2018-04-14T02:39:49.123Z,9.10
2018-04-14T02:42:16.790Z,9.10
2018-04-14T02:44:44.405Z,9.10
2018-04-14T02:47:12.279Z,9.10
2018-04-14T02:49:40.003Z,9.10
2018-04-14T02:52:07.669Z,9.10
2018-04-14T02:54:35.329Z,9.10
2018-04-14T02:57:03.735Z,9.00
2018-04-14T02:59:31.350Z,9.00
2018-04-14T03:01:59.119Z,9.00
2018-04-14T03:04:26.735Z,9.00
2018-04-14T03:06:54.433Z,9.00
2018-04-14T03:09:23.038Z,9.00
2018-04-14T03:11:50.653Z,9.00
2018-04-14T03:14:18.264Z,8.90
2018-04-14T03:16:45.917Z,8.90
2018-04-14T03:19:13.527Z,8.90
2018-04-14T03:21:41.164Z,8.90
2018-04-14T03:24:09.584Z,8.90
2018-04-14T03:26:37.205Z,8.90
2018-04-14T03:29:04.824Z,9.00
2018-04-14T03:31:32.534Z,9.00
2018-04-14T03:34:00.497Z,9.00
2018-04-14T03:36:28.131Z,8.90
2018-04-14T03:38:56.557Z,8.90
2018-04-14T03:41:24.232Z,8.90
2018-04-14T03:43:52.301Z,8.90
2018-04-14T03:46:19.983Z,8.90
2018-04-14T03:48:47.609Z,8.90
2018-04-14T03:51:15.472Z,8.90
2018-04-14T03:53:43.158Z,8.90
2018-04-14T03:56:10.781Z,8.90
2018-04-14T03:58:38.469Z,8.90
2018-04-14T04:01:06.363Z,8.90
2018-04-14T04:03:33.985Z,8.90
2018-04-14T04:06:02.369Z,8.90
2018-04-14T04:08:30.891Z,8.90
2018-04-14T04:10:58.537Z,8.90
2018-04-14T04:13:27.330Z,8.80
2018-04-14T04:15:55.293Z,8.80
2018-04-14T04:18:34.710Z,8.80
2018-04-14T04:21:14.286Z,8.80
2018-04-14T04:23:53.898Z,8.80
2018-04-14T04:26:22.498Z,8.90
2018-04-14T04:28:50.949Z,9.00
2018-04-14T04:31:19.378Z,9.00
2018-04-14T04:33:47.209Z,8.90
2018-04-14T04:36:15.854Z,9.00
2018-04-14T04:38:43.489Z,9.00
2018-04-14T04:41:11.150Z,9.00
2018-04-14T04:43:38.774Z,9.00
2018-04-14T04:46:06.445Z,9.00
2018-04-14T04:48:34.110Z,9.00
2018-04-14T04:51:01.734Z,8.90
2018-04-14T04:53:29.354Z,9.00
2018-04-14T04:55:57.791Z,9.00
2018-04-14T04:58:25.413Z,9.00
2018-04-14T05:00:53.938Z,9.00
2018-04-14T05:03:21.601Z,9.00
2018-04-14T05:05:49.216Z,9.00
2018-04-14T05:08:16.866Z,9.00
2018-04-14T05:10:44.531Z,9.00
2018-04-14T05:13:12.213Z,9.00
2018-04-14T05:15:39.857Z,9.00
2018-04-14T05:18:07.517Z,9.00
2018-04-14T05:20:35.241Z,9.00
2018-04-14T05:23:02.882Z,9.00
2018-04-14T05:25:30.659Z,9.00
2018-04-14T05:27:58.282Z,9.00
2018-04-14T05:30:25.898Z,9.10
2018-04-14T05:32:54.750Z,9.10
2018-04-14T05:35:22.412Z,9.00
2018-04-14T05:37:50.028Z,9.10
2018-04-14T05:40:18.590Z,9.10
2018-04-14T05:42:47.025Z,9.10
2018-04-14T05:45:14.673Z,9.10
2018-04-14T05:47:42.337Z,9.10
2018-04-14T05:50:09.968Z,9.10
2018-04-14T05:52:37.581Z,9.10
2018-04-14T05:55:05.241Z,9.10
2018-04-14T05:57:33.040Z,9.10
2018-04-14T06:00:01.445Z,9.10
2018-04-14T06:02:29.881Z,9.10
2018-04-14T06:04:57.506Z,9.10
2018-04-14T06:07:25.121Z,9.10
2018-04-14T06:09:52.773Z,9.20
2018-04-14T06:12:20.410Z,9.10
2018-04-14T06:14:48.837Z,9.10
2018-04-14T06:17:17.263Z,9.10
2018-04-14T06:19:44.893Z,9.10
2018-04-14T06:22:13.302Z,9.10
2018-04-14T06:24:41.050Z,9.10
2018-04-14T06:27:09.478Z,9.20
2018-04-14T06:29:37.152Z,9.20
2018-04-14T06:32:04.809Z,9.20
2018-04-14T06:34:33.224Z,9.30
2018-04-14T06:37:00.898Z,9.20
2018-04-14T06:39:28.657Z,9.30
2018-04-14T06:41:56.292Z,9.30
2018-04-14T06:44:24.998Z,9.30
2018-04-14T06:46:52.765Z,9.20
2018-04-14T06:49:20.413Z,9.30
2018-04-14T06:51:48.032Z,9.30
2018-04-14T06:54:16.461Z,9.50
2018-04-14T06:56:44.091Z,9.50
2018-04-14T06:59:12.898Z,9.50
2018-04-14T07:01:41.267Z,9.50
2018-04-14T07:04:08.878Z,9.60
2018-04-14T07:06:36.497Z,9.60
2018-04-14T07:09:04.161Z,9.50
2018-04-14T07:11:31.773Z,9.60
2018-04-14T07:13:59.391Z,9.60
2018-04-14T07:16:27.470Z,9.70
2018-04-14T07:18:56.502Z,9.70
2018-04-14T07:21:24.118Z,9.70
2018-04-14T07:23:51.849Z,9.70
2018-04-14T07:26:19.489Z,9.70
2018-04-14T07:28:47.197Z,9.70
2018-04-14T07:31:14.938Z,9.70
2018-04-14T07:33:42.635Z,9.70
2018-04-14T07:36:10.305Z,9.70
2018-04-14T07:38:38.050Z,9.80
2018-04-14T07:41:06.433Z,9.70
2018-04-14T07:43:34.817Z,9.70
2018-04-14T07:46:03.237Z,9.70
2018-04-14T07:48:30.855Z,9.70
2018-04-14T07:50:58.471Z,9.70
2018-04-14T07:53:26.158Z,9.80
2018-04-14T07:55:53.787Z,9.80
2018-04-14T07:58:21.397Z,9.80
2018-04-14T08:00:49.050Z,9.80
2018-04-14T08:03:17.435Z,9.60
2018-04-14T08:05:45.047Z,9.60
2018-04-14T08:08:12.713Z,9.70
2018-04-14T08:10:40.327Z,9.70
2018-04-14T08:13:07.957Z,9.70
2018-04-14T08:15:35.619Z,9.70
2018-04-14T08:18:03.247Z,9.80
2018-04-14T08:20:30.869Z,9.80
2018-04-14T08:22:58.557Z,9.80
2018-04-14T08:25:26.237Z,9.80
2018-04-14T08:27:53.844Z,9.80
2018-04-14T08:30:21.506Z,9.70
2018-04-14T08:32:49.109Z,9.70
2018-04-14T08:35:16.717Z,9.70
2018-04-14T08:37:44.366Z,9.70
2018-04-14T08:40:12.755Z,9.70
2018-04-14T08:42:41.131Z,9.70
2018-04-14T08:45:08.795Z,9.70
2018-04-14T08:47:36.412Z,9.70
2018-04-14T08:50:04.078Z,9.70
2018-04-14T08:52:31.725Z,9.70
2018-04-14T08:54:59.337Z,9.70
2018-04-14T08:57:26.957Z,9.70
2018-04-14T08:59:54.710Z,9.70
2018-04-14T09:02:22.323Z,9.70
2018-04-14T09:04:50.697Z,9.70
2018-04-14T09:07:18.361Z,9.60
2018-04-14T09:09:45.973Z,9.60
2018-04-14T09:12:14.341Z,9.60
2018-04-14T09:14:42.153Z,9.50
2018-04-14T09:17:09.760Z,9.50
2018-04-14T09:19:37.374Z,9.50
2018-04-14T09:22:05.898Z,9.50
2018-04-14T09:24:33.593Z,9.50
2018-04-14T09:27:01.210Z,9.50
2018-04-14T09:29:29.729Z,9.40
2018-04-14T09:31:57.354Z,9.40
2018-04-14T09:34:25.007Z,9.40
2018-04-14T09:36:52.666Z,9.40
2018-04-14T09:39:20.288Z,9.40
2018-04-14T09:41:47.918Z,9.40
2018-04-14T09:44:15.647Z,9.40
2018-04-14T09:46:44.093Z,9.40
2018-04-14T09:49:11.731Z,9.40
2018-04-14T09:51:39.386Z,9.30
2018-04-14T09:54:07.761Z,9.20
2018-04-14T09:56:35.388Z,9.20
2018-04-14T09:59:03.044Z,9.30
2018-04-14T10:01:30.894Z,9.30
2018-04-14T10:03:59.293Z,9.40
2018-04-14T10:06:27.709Z,9.40
2018-04-14T10:08:56.257Z,9.40
2018-04-14T10:11:23.893Z,9.30
2018-04-14T10:13:51.563Z,9.30
2018-04-14T10:16:19.384Z,9.20
2018-04-14T10:18:47.010Z,9.20
2018-04-14T10:21:14.786Z,9.20
2018-04-14T10:23:42.453Z,9.20
2018-04-14T10:26:10.070Z,9.20
2018-04-14T10:28:37.767Z,9.20
2018-04-14T10:31:06.150Z,9.20
2018-04-14T10:33:33.880Z,9.20
2018-04-14T10:36:01.566Z,9.20
2018-04-14T10:38:29.214Z,9.20
2018-04-14T10:40:56.843Z,9.30
2018-04-14T10:43:24.512Z,9.20
2018-04-14T10:45:52.230Z,9.20
2018-04-14T10:48:19.862Z,9.20
2018-04-14T10:50:47.629Z,9.10
2018-04-14T10:53:15.411Z,9.10
2018-04-14T10:55:43.059Z,9.10
2018-04-14T10:58:10.810Z,9.20
2018-04-14T11:00:38.425Z,9.20
2018-04-14T11:03:06.041Z,9.20
2018-04-14T11:05:33.710Z,9.20
2018-04-14T11:08:01.355Z,9.20
2018-04-14T11:10:28.997Z,9.20
2018-04-14T11:12:56.687Z,9.20
2018-04-14T11:15:24.297Z,9.20
2018-04-14T11:17:52.712Z,9.30
2018-04-14T11:20:20.379Z,9.30
2018-04-14T11:22:48.063Z,9.30
2018-04-14T11:25:15.702Z,9.30
2018-04-14T11:27:44.158Z,9.30
2018-04-14T11:30:11.834Z,9.30
2018-04-14T11:32:39.501Z,9.30
2018-04-14T11:35:07.160Z,9.40
2018-04-14T11:37:34.821Z,9.40
2018-04-14T11:40:02.514Z,9.40
2018-04-14T11:42:30.202Z,9.30
2018-04-14T11:44:57.825Z,9.40
2018-04-14T11:47:25.438Z,9.30
2018-04-14T11:49:53.095Z,9.30
2018-04-14T11:52:20.707Z,9.30
2018-04-14T11:54:48.321Z,9.40
2018-04-14T11:57:15.983Z,9.40
2018-04-14T11:59:44.365Z,9.60
2018-04-14T12:02:12.739Z,9.60
2018-04-14T12:04:40.693Z,9.60
2018-04-14T12:07:08.342Z,9.60
2018-04-14T12:09:36.006Z,9.60
2018-04-14T12:12:03.667Z,9.60
2018-04-14T12:14:32.054Z,9.50
2018-04-14T12:17:00.494Z,9.50
2018-04-14T12:19:28.254Z,9.40
2018-04-14T12:21:56.792Z,9.40
2018-04-14T12:24:24.503Z,9.40
2018-04-14T12:26:52.170Z,9.40
2018-04-14T12:29:20.570Z,9.40
2018-04-14T12:31:48.264Z,9.40
2018-04-14T12:34:16.125Z,9.50
2018-04-14T12:36:43.737Z,9.50
2018-04-14T12:39:11.374Z,9.50
2018-04-14T12:41:39.165Z,9.60
2018-04-14T12:44:06.826Z,9.60
2018-04-14T12:46:34.530Z,9.70
2018-04-14T12:49:02.226Z,9.70
2018-04-14T12:51:30.062Z,9.80
2018-04-14T12:53:57.693Z,9.80
2018-04-14T12:56:27.045Z,9.90
2018-04-14T12:58:54.670Z,9.90
2018-04-14T13:01:22.296Z,9.90
2018-04-14T13:03:49.953Z,9.90
2018-04-14T13:06:17.573Z,10.00
2018-04-14T13:08:45.219Z,9.90
2018-04-14T13:11:12.985Z,9.90
2018-04-14T13:13:40.621Z,9.90
2018-04-14T13:16:09.034Z,10.00
2018-04-14T13:18:36.702Z,9.90
2018-04-14T13:21:04.341Z,10.00
2018-04-14T13:23:31.961Z,10.00
2018-04-14T13:25:59.650Z,10.00
2018-04-14T13:28:28.111Z,9.90
2018-04-14T13:30:57.437Z,9.90
2018-04-14T13:33:25.098Z,9.80
2018-04-14T13:35:53.542Z,9.70
2018-04-14T13:38:21.175Z,9.80
2018-04-14T13:40:48.835Z,9.70
2018-04-14T13:43:17.241Z,9.60
2018-04-14T13:45:45.031Z,9.60
2018-04-14T13:48:12.693Z,9.60
2018-04-14T13:50:40.305Z,9.60
2018-04-14T13:53:07.929Z,9.50
2018-04-14T13:55:35.594Z,9.50
2018-04-14T13:58:03.992Z,9.50
2018-04-14T14:00:31.621Z,9.50
2018-04-14T14:03:00.041Z,9.50
2018-04-14T14:05:27.705Z,9.50
2018-04-14T14:07:55.329Z,9.50
2018-04-14T14:10:22.990Z,9.50
2018-04-14T14:12:50.626Z,9.50
2018-04-14T14:15:19.009Z,9.40
2018-04-14T14:17:46.685Z,9.40
2018-04-14T14:20:14.309Z,9.40
2018-04-14T14:22:41.934Z,9.40
2018-04-14T14:25:09.598Z,9.50
2018-04-14T14:27:37.209Z,9.50
2018-04-14T14:30:04.890Z,9.50
2018-04-14T14:32:32.625Z,9.40
2018-04-14T14:35:00.350Z,9.40
2018-04-14T14:37:27.973Z,9.40
2018-04-14T14:39:55.637Z,9.40
2018-04-14T14:42:23.273Z,9.40
2018-04-14T14:44:50.893Z,9.40
2018-04-14T14:47:19.324Z,9.40
2018-04-14T14:49:46.944Z,9.40
2018-04-14T14:52:14.569Z,9.40
2018-04-14T14:54:42.241Z,9.40
2018-04-14T14:57:09.857Z,9.40
2018-04-14T14:59:37.477Z,9.40
2018-04-14T15:02:05.139Z,9.40
2018-04-14T15:04:32.769Z,9.40
2018-04-14T15:07:00.390Z,9.40
2018-04-14T15:09:28.058Z,9.40
2018-04-14T15:11:56.452Z,9.50
2018-04-14T15:14:24.859Z,9.50
2018-04-14T15:16:52.567Z,9.40
2018-04-14T15:19:20.198Z,9.50
2018-04-14T15:21:47.813Z,9.40
2018-04-14T15:24:15.504Z,9.40
2018-04-14T15:26:43.122Z,9.40
2018-04-14T15:29:10.756Z,9.50
2018-04-14T15:31:39.932Z,9.50
2018-04-14T15:34:07.581Z,9.50
2018-04-14T15:36:35.294Z,9.50
2018-04-14T15:39:03.132Z,9.50
2018-04-14T15:41:31.124Z,9.50
2018-04-14T15:43:58.745Z,9.50
2018-04-14T15:46:26.405Z,9.50
2018-04-14T15:48:54.046Z,9.50
2018-04-14T15:51:21.674Z,9.50
2018-04-14T15:53:50.118Z,9.50
2018-04-14T15:56:17.741Z,9.50
2018-04-14T15:58:46.130Z,9.50
2018-04-14T16:01:14.649Z,9.50
2018-04-14T16:03:44.725Z,9.50
2018-04-14T16:06:09.997Z,9.50
2018-04-14T16:08:37.657Z,9.50
2018-04-14T16:11:06.033Z,9.60
2018-04-14T16:13:34.427Z,9.60
2018-04-14T16:16:02.862Z,9.60
2018-04-14T16:18:30.481Z,9.50
2018-04-14T16:20:59.276Z,9.60
2018-04-14T16:23:26.971Z,9.60
2018-04-14T16:25:55.353Z,9.70
2018-04-14T16:28:22.992Z,9.60
2018-04-14T16:30:50.751Z,9.70
2018-04-14T16:33:18.386Z,9.70
2018-04-14T16:35:46.773Z,9.80
2018-04-14T16:38:15.197Z,9.80
2018-04-14T16:40:42.816Z,9.80
2018-04-14T16:43:10.434Z,9.90
2018-04-14T16:45:38.098Z,9.90
2018-04-14T16:48:05.746Z,9.80
2018-04-14T16:50:34.199Z,9.80
2018-04-14T16:53:01.979Z,9.80
2018-04-14T16:55:29.882Z,9.80
2018-04-14T16:57:58.425Z,9.80
2018-04-14T17:00:26.435Z,9.70
2018-04-14T17:02:54.179Z,9.70
2018-04-14T17:05:21.809Z,9.70
2018-04-14T17:07:49.477Z,9.70
2018-04-14T17:10:17.134Z,9.80
2018-04-14T17:12:44.762Z,9.80
2018-04-14T17:15:12.457Z,9.80
2018-04-14T17:17:40.135Z,9.80
2018-04-14T17:20:07.754Z,9.80
2018-04-14T17:22:35.434Z,9.90
2018-04-14T17:25:03.145Z,9.90
2018-04-14T17:27:30.786Z,9.90
2018-04-14T17:29:59.315Z,10.00
2018-04-14T17:32:26.993Z,9.90
2018-04-14T17:34:54.617Z,10.00
2018-04-14T17:37:22.286Z,10.00
2018-04-14T17:39:50.121Z,10.00
2018-04-14T17:42:17.743Z,10.00
2018-04-14T17:44:45.409Z,10.00
2018-04-14T17:47:13.830Z,10.20
2018-04-14T17:49:42.359Z,10.40
2018-04-14T17:52:10.119Z,10.30
2018-04-14T17:54:37.749Z,10.50
2018-04-14T17:57:05.469Z,10.50
2018-04-14T17:59:33.296Z,10.50
2018-04-14T18:02:00.950Z,10.60
2018-04-14T18:04:29.510Z,10.60
2018-04-14T18:06:57.185Z,10.60
2018-04-14T18:09:24.870Z,10.60
2018-04-14T18:11:52.497Z,10.60
2018-04-14T18:14:20.505Z,10.60
2018-04-14T18:16:48.145Z,10.50
2018-04-14T18:19:16.645Z,10.50
2018-04-14T18:21:44.305Z,10.40
2018-04-14T18:24:11.933Z,10.30
2018-04-14T18:26:39.562Z,10.30
2018-04-14T18:29:07.226Z,10.20
2018-04-14T18:31:34.857Z,10.20
2018-04-14T18:34:02.473Z,10.10
2018-04-14T18:36:30.919Z,10.10
2018-04-14T18:38:59.694Z,10.00
2018-04-14T18:41:27.611Z,10.00
2018-04-14T18:43:55.585Z,10.00
2018-04-14T18:46:23.213Z,10.00
2018-04-14T18:48:51.605Z,10.00
2018-04-14T18:51:20.480Z,10.00
2018-04-14T18:53:47.734Z,10.00
2018-04-14T18:56:15.371Z,10.00
2018-04-14T18:58:43.054Z,10.00
2018-04-14T19:01:10.678Z,10.00
2018-04-14T19:03:38.620Z,10.00
2018-04-14T19:06:06.287Z,9.90
2018-04-14T19:08:33.910Z,9.90
2018-04-14T19:11:02.308Z,9.80
2018-04-14T19:13:30.757Z,9.80
2018-04-14T19:15:59.799Z,9.80
2018-04-14T19:18:29.108Z,9.80
2018-04-14T19:20:56.858Z,9.80
2018-04-14T19:23:24.509Z,9.80
2018-04-14T19:25:52.149Z,9.80
2018-04-14T19:28:20.580Z,9.90
2018-04-14T19:30:48.222Z,9.80
2018-04-14T19:33:15.880Z,9.60
2018-04-14T19:35:44.311Z,9.80
2018-04-14T19:38:11.966Z,9.80
2018-04-14T19:40:39.594Z,9.80
2018-04-14T19:43:07.281Z,9.80
2018-04-14T19:45:34.927Z,9.80
2018-04-14T19:48:02.542Z,9.80
2018-04-14T19:50:31.382Z,9.90
2018-04-14T19:52:59.571Z,9.80
2018-04-14T19:55:27.195Z,9.80
2018-04-14T19:57:55.731Z,9.80
2018-04-14T20:00:23.357Z,9.80
2018-04-14T20:02:51.181Z,9.80
2018-04-14T20:05:18.868Z,9.80
2018-04-14T20:07:46.591Z,9.80
2018-04-14T20:10:14.997Z,9.80
2018-04-14T20:12:42.670Z,9.80
2018-04-14T20:15:10.458Z,9.90
2018-04-14T20:17:38.151Z,9.80
2018-04-14T20:20:05.862Z,9.90
2018-04-14T20:22:33.595Z,9.90
2018-04-14T20:25:01.286Z,9.90
2018-04-14T20:27:30.487Z,9.90
2018-04-14T20:29:58.115Z,9.90
2018-04-14T20:32:26.498Z,9.90
2018-04-14T20:34:54.945Z,9.90
2018-04-14T20:37:22.607Z,9.90
2018-04-14T20:39:50.248Z,9.90
2018-04-14T20:42:18.691Z,10.00
2018-04-14T20:44:46.326Z,9.90
2018-04-14T20:47:14.020Z,10.00
2018-04-14T20:49:41.691Z,9.90
2018-04-14T20:52:09.322Z,10.00
2018-04-14T20:54:37.717Z,9.90
2018-04-14T20:57:06.251Z,9.90
2018-04-14T20:59:33.886Z,9.90
2018-04-14T21:02:02.333Z,9.90
2018-04-14T21:04:29.994Z,9.90
2018-04-14T21:06:57.686Z,10.00
2018-04-14T21:09:25.347Z,10.00
2018-04-14T21:11:53.101Z,10.00
2018-04-14T21:14:20.733Z,10.00
2018-04-14T21:16:48.361Z,10.00
2018-04-14T21:19:16.826Z,10.00
2018-04-14T21:21:44.561Z,10.00
2018-04-14T21:24:12.193Z,10.00
2018-04-14T21:26:39.975Z,9.90
2018-04-14T21:29:07.610Z,9.90
2018-04-14T21:31:36.014Z,9.90
2018-04-14T21:34:03.673Z,9.80
2018-04-14T21:36:32.093Z,9.80
2018-04-14T21:39:00.822Z,9.80
2018-04-14T21:41:28.487Z,9.70
2018-04-14T21:43:56.109Z,9.80
2018-04-14T21:46:24.502Z,9.80
2018-04-14T21:48:52.941Z,9.80
2018-04-14T21:51:20.561Z,9.70
2018-04-14T21:53:48.981Z,9.80
2018-04-14T21:56:16.674Z,9.80
2018-04-14T21:58:44.299Z,9.80
2018-04-14T22:01:14.626Z,9.90
2018-04-14T22:03:42.320Z,9.90
2018-04-14T22:06:10.724Z,10.00
2018-04-14T22:08:38.363Z,10.00
2018-04-14T22:11:06.083Z,10.00
2018-04-14T22:13:33.762Z,10.00
2018-04-14T22:16:01.412Z,10.00
2018-04-14T22:18:30.109Z,10.00
2018-04-14T22:20:57.911Z,10.00
2018-04-14T22:23:25.545Z,9.90
2018-04-14T22:25:54.175Z,9.90
2018-04-14T22:28:22.963Z,9.90
2018-04-14T22:30:50.587Z,9.90
2018-04-14T22:33:18.386Z,9.90
2018-04-14T22:35:46.773Z,9.80
2018-04-14T22:38:14.398Z,9.80
2018-04-14T22:40:42.160Z,9.80
2018-04-14T22:43:09.798Z,9.80
2018-04-14T22:45:38.221Z,9.80
2018-04-14T22:48:05.886Z,9.80
2018-04-14T22:50:33.597Z,9.90
2018-04-14T22:53:01.225Z,9.90
2018-04-14T22:55:30.609Z,9.90
2018-04-14T22:57:58.237Z,9.80
2018-04-14T23:00:25.898Z,9.90
2018-04-14T23:02:53.573Z,9.90
2018-04-14T23:05:21.206Z,9.90
2018-04-14T23:07:48.829Z,9.90
2018-04-14T23:10:16.602Z,9.90
2018-04-14T23:12:44.305Z,9.90
2018-04-14T23:15:11.929Z,10.00
2018-04-14T23:17:39.623Z,10.00
2018-04-14T23:20:07.247Z,10.00
2018-04-14T23:22:34.901Z,9.90
2018-04-14T23:25:02.753Z,9.90
2018-04-14T23:27:31.309Z,9.90
2018-04-14T23:30:00.763Z,9.90
2018-04-14T23:32:28.529Z,9.90
2018-04-14T23:34:56.150Z,9.90
2018-04-14T23:37:23.773Z,9.90
2018-04-14T23:39:51.441Z,9.90
2018-04-14T23:42:19.113Z,9.90
2018-04-14T23:44:46.804Z,9.90
2018-04-14T23:47:14.465Z,9.90
2018-04-14T23:49:42.107Z,9.90
2018-04-14T23:52:10.492Z,9.90
2018-04-14T23:54:39.025Z,9.90
2018-04-14T23:57:06.713Z,9.90
2018-04-14T23:59:34.334Z,9.90
